Time;durP1;ratioP1;P1;durP2;ratioP2;P2;SDS_P1;SDS_P2;PMS_P1;PMS_P2;Temp;Humidity;BMP_temperature;BMP_pressure;BME280_temperature;BME280_humidity;BME280_pressure;Samples;Min_cycle;Max_cycle;Signal;HPM_P1;HPM_P2
2022/06/08 00:00:13;;;;;;;9.13;5.22;;;13.70;99.90;;;;;;5093818;28;20540;-56
2022/06/08 00:02:41;;;;;;;7.90;5.53;;;13.70;99.90;;;;;;5094501;28;20089;-56
2022/06/08 00:05:07;;;;;;;8.10;6.50;;;13.60;99.90;;;;;;5097748;28;20332;-56
2022/06/08 00:07:33;;;;;;;8.02;5.95;;;13.60;99.90;;;;;;5094795;28;20522;-54
2022/06/08 00:09:59;;;;;;;25.20;5.90;;;13.60;99.90;;;;;;5093749;28;20115;-55
2022/06/08 00:12:26;;;;;;;11.98;6.07;;;13.60;99.90;;;;;;5094287;28;20085;-56
2022/06/08 00:14:51;;;;;;;7.65;6.30;;;13.50;99.90;;;;;;5093428;28;20047;-52
2022/06/08 00:17:18;;;;;;;17.50;6.25;;;13.60;99.90;;;;;;5093311;28;20028;-56
2022/06/08 00:19:44;;;;;;;74.18;7.22;;;13.60;99.90;;;;;;5094910;28;20032;-55
2022/06/08 00:22:10;;;;;;;24.30;7.60;;;13.60;99.90;;;;;;5094144;28;20028;-57
2022/06/08 00:24:35;;;;;;;39.28;7.53;;;13.60;99.90;;;;;;5094159;28;20055;-52
2022/06/08 00:27:01;;;;;;;42.08;7.30;;;13.50;99.90;;;;;;5094955;28;20569;-56
2022/06/08 00:29:27;;;;;;;13.13;6.57;;;13.50;99.90;;;;;;5093565;28;20031;-57
2022/06/08 00:31:53;;;;;;;26.00;6.95;;;13.40;99.90;;;;;;5094149;28;20047;-53
2022/06/08 00:34:19;;;;;;;19.38;7.20;;;13.40;99.90;;;;;;5094559;28;20027;-54
2022/06/08 00:36:44;;;;;;;8.63;6.05;;;13.40;99.90;;;;;;5093643;28;20028;-57
2022/06/08 00:39:10;;;;;;;6.82;6.05;;;13.40;99.90;;;;;;5096132;28;20068;-54
2022/06/08 00:41:44;;;;;;;18.25;5.88;;;13.40;99.90;;;;;;5093431;28;20047;-56
2022/06/08 00:44:19;;;;;;;8.98;5.82;;;13.40;99.90;;;;;;5094097;28;20027;-53
2022/06/08 00:46:48;;;;;;;6.50;5.85;;;13.30;99.90;;;;;;5094319;28;20008;-55
2022/06/08 00:49:19;;;;;;;11.60;5.40;;;13.30;99.90;;;;;;5094941;28;20024;-55
2022/06/08 00:51:46;;;;;;;24.00;5.32;;;13.30;99.90;;;;;;5094743;28;20028;-54
2022/06/08 00:54:20;;;;;;;87.38;7.75;;;13.20;99.90;;;;;;5093411;28;20086;-55
2022/06/08 00:56:53;;;;;;;30.92;5.78;;;13.20;99.90;;;;;;5093827;28;20106;-56
2022/06/08 00:59:19;;;;;;;17.45;5.90;;;13.20;99.90;;;;;;5094755;28;20020;-55
2022/06/08 01:01:45;;;;;;;6.75;6.15;;;13.20;99.90;;;;;;5093558;28;20035;-56
2022/06/08 01:04:17;;;;;;;6.13;5.63;;;13.10;99.90;;;;;;5094297;28;20020;-56
2022/06/08 01:06:47;;;;;;;12.00;5.90;;;13.10;99.90;;;;;;5093184;28;20498;-55
2022/06/08 01:09:33;;;;;;;7.97;5.80;;;13.20;99.90;;;;;;5094180;28;20024;-55
2022/06/08 01:12:01;;;;;;;21.58;6.63;;;13.20;99.90;;;;;;5093721;28;20028;-57
2022/06/08 01:14:27;;;;;;;16.83;6.47;;;13.20;99.90;;;;;;5094087;28;20054;-56
2022/06/08 01:17:02;;;;;;;13.73;5.93;;;13.20;99.90;;;;;;5093283;28;20020;-57
2022/06/08 01:19:28;;;;;;;9.85;6.47;;;13.20;99.90;;;;;;5093150;28;20433;-54
2022/06/08 01:21:57;;;;;;;10.45;6.10;;;13.20;99.90;;;;;;5093709;28;20052;-54
2022/06/08 01:24:24;;;;;;;6.97;6.32;;;13.20;99.90;;;;;;5092046;28;20099;-57
2022/06/08 01:27:08;;;;;;;8.00;7.20;;;13.30;99.90;;;;;;5091791;28;20023;-55
2022/06/08 01:29:48;;;;;;;12.32;6.70;;;13.30;99.90;;;;;;5093168;28;20352;-56
2022/06/08 01:32:36;;;;;;;10.85;6.40;;;13.40;99.90;;;;;;5093294;28;20032;-54
2022/06/08 01:35:20;;;;;;;7.30;6.70;;;13.40;99.90;;;;;;5092597;28;20031;-56
2022/06/08 01:37:46;;;;;;;9.88;6.78;;;13.30;99.90;;;;;;5093471;28;20034;-55
2022/06/08 01:40:24;;;;;;;7.38;6.53;;;13.30;99.90;;;;;;5092987;28;20036;-56
2022/06/08 01:42:58;;;;;;;8.48;6.38;;;13.30;99.90;;;;;;5094078;28;20039;-57
2022/06/08 01:46:02;;;;;;;8.98;7.10;;;13.40;99.90;;;;;;5092566;28;20042;-56
2022/06/08 01:48:39;;;;;;;6.55;5.88;;;13.40;99.90;;;;;;5094178;28;20024;-55
2022/06/08 01:51:21;;;;;;;6.47;5.88;;;13.50;99.90;;;;;;5094432;28;20028;-55
2022/06/08 01:53:50;;;;;;;6.30;5.30;;;13.60;99.90;;;;;;5091948;28;20028;-55
2022/06/08 01:56:25;;;;;;;8.88;5.70;;;13.50;99.90;;;;;;5093054;28;20051;-54
2022/06/08 01:59:16;;;;;;;5.93;5.40;;;13.50;99.90;;;;;;5092991;28;20027;-55
2022/06/08 02:01:55;;;;;;;5.82;5.32;;;13.50;99.90;;;;;;5093659;28;20368;-55
2022/06/08 02:04:40;;;;;;;11.65;7.10;;;13.50;99.90;;;;;;5091999;28;20074;-54
2022/06/08 02:07:22;;;;;;;11.70;6.25;;;13.60;99.90;;;;;;5092800;28;20020;-56
2022/06/08 02:09:58;;;;;;;6.50;5.90;;;13.60;99.90;;;;;;5091991;28;20024;-55
2022/06/08 02:12:26;;;;;;;7.85;6.30;;;13.60;99.90;;;;;;5091317;28;20027;-51
2022/06/08 02:14:58;;;;;;;8.70;6.80;;;13.60;99.90;;;;;;5092194;28;20030;-56
2022/06/08 02:17:42;;;;;;;7.65;6.60;;;13.70;99.90;;;;;;5090913;28;20089;-56
2022/06/08 02:20:15;;;;;;;7.72;7.03;;;13.80;99.90;;;;;;5092306;28;20467;-54
2022/06/08 02:22:53;;;;;;;7.93;5.38;;;13.80;99.90;;;;;;5092158;28;20394;-56
2022/06/08 02:25:33;;;;;;;9.20;5.38;;;13.90;99.90;;;;;;5092037;28;20070;-56
2022/06/08 02:28:06;;;;;;;6.05;5.53;;;13.80;99.90;;;;;;5095949;28;20016;-54
2022/06/08 02:30:38;;;;;;;10.73;5.78;;;13.80;99.90;;;;;;5093708;28;20030;-55
2022/06/08 02:36:00;;;;;;;9.50;5.63;;;13.90;99.90;;;;;;5096935;28;20268;-55
2022/06/08 02:38:33;;;;;;;5.28;4.78;;;13.90;99.90;;;;;;5093424;28;20016;-56
2022/06/08 02:41:01;;;;;;;6.10;5.05;;;13.90;99.90;;;;;;5092263;28;20395;-56
2022/06/08 02:43:56;;;;;;;5.30;4.60;;;13.90;99.90;;;;;;5093266;28;20024;-56
2022/06/08 02:46:27;;;;;;;9.77;4.65;;;14.00;99.90;;;;;;5089129;28;20398;-56
2022/06/08 02:48:53;;;;;;;5.70;5.20;;;14.00;99.90;;;;;;5092241;28;20507;-54
2022/06/08 02:51:28;;;;;;;10.40;5.78;;;14.00;99.90;;;;;;5092610;28;20086;-56
2022/06/08 02:54:03;;;;;;;4.78;4.32;;;14.00;99.90;;;;;;5092737;28;20437;-57
2022/06/08 02:57:11;;;;;;;6.63;3.95;;;14.10;99.90;;;;;;5094388;28;20024;-57
2022/06/08 03:00:06;;;;;;;9.85;4.50;;;14.10;99.90;;;;;;5085440;28;20440;-57
2022/06/08 03:02:41;;;;;;;4.78;4.38;;;14.00;99.90;;;;;;5095644;28;20050;-55
2022/06/08 03:05:17;;;;;;;10.23;4.93;;;14.00;99.90;;;;;;5092751;28;20026;-56
2022/06/08 03:08:04;;;;;;;6.55;5.88;;;14.00;99.90;;;;;;5093569;28;20020;-55
2022/06/08 03:10:37;;;;;;;5.95;5.45;;;14.00;99.90;;;;;;5092574;28;20030;-55
2022/06/08 03:13:08;;;;;;;9.85;4.90;;;14.00;99.90;;;;;;5091989;28;20020;-55
2022/06/08 03:15:34;;;;;;;8.63;4.70;;;14.10;99.90;;;;;;5092377;28;20377;-56
2022/06/08 03:18:00;;;;;;;4.90;4.40;;;14.10;99.90;;;;;;5091695;28;20115;-57
2022/06/08 03:20:27;;;;;;;6.53;4.80;;;14.10;99.90;;;;;;5092680;28;20031;-56
2022/06/08 03:22:54;;;;;;;5.78;4.78;;;14.10;99.90;;;;;;5092561;28;20024;-55
2022/06/08 03:25:21;;;;;;;10.55;5.25;;;14.00;99.90;;;;;;5092472;28;20494;-57
2022/06/08 03:27:48;;;;;;;7.30;4.88;;;14.00;99.90;;;;;;5092940;28;20413;-56
2022/06/08 03:30:14;;;;;;;7.13;5.28;;;14.00;99.90;;;;;;5092751;28;20438;-57
2022/06/08 03:32:40;;;;;;;6.03;5.43;;;14.00;99.90;;;;;;5091026;28;20379;-57
2022/06/08 03:35:07;;;;;;;8.57;5.05;;;14.00;99.90;;;;;;5092502;28;20024;-56
2022/06/08 03:37:32;;;;;;;9.32;4.88;;;14.00;99.90;;;;;;5092047;28;20383;-57
2022/06/08 03:39:59;;;;;;;5.07;4.57;;;14.00;99.90;;;;;;5092426;28;20044;-54
2022/06/08 03:42:24;;;;;;;8.18;5.00;;;14.00;99.90;;;;;;5092018;28;20058;-56
2022/06/08 03:44:50;;;;;;;7.63;4.80;;;14.10;99.90;;;;;;5094133;28;20012;-56
2022/06/08 03:47:20;;;;;;;4.95;4.50;;;14.10;99.90;;;;;;5095233;28;20016;-55
2022/06/08 03:49:48;;;;;;;8.50;4.57;;;14.10;99.90;;;;;;5093639;28;20031;-57
2022/06/08 03:52:18;;;;;;;6.50;5.18;;;14.20;99.90;;;;;;5094895;28;20028;-56
2022/06/08 03:54:49;;;;;;;6.30;4.00;;;14.20;99.90;;;;;;5095102;28;20028;-57
2022/06/08 03:57:16;;;;;;;6.50;5.22;;;14.20;99.90;;;;;;5097876;28;20505;-57
2022/06/08 03:59:45;;;;;;;7.05;4.60;;;14.20;99.90;;;;;;5095655;28;20012;-55
2022/06/08 04:02:11;;;;;;;5.93;4.93;;;14.20;99.90;;;;;;5094476;28;20457;-56
2022/06/08 04:04:37;;;;;;;7.75;4.43;;;14.20;99.90;;;;;;5094028;28;20024;-56
2022/06/08 04:07:10;;;;;;;6.88;4.80;;;14.20;99.90;;;;;;5094081;28;20047;-56
2022/06/08 04:09:36;;;;;;;9.50;4.60;;;14.20;99.90;;;;;;5097617;28;20012;-56
2022/06/08 04:12:04;;;;;;;5.35;4.30;;;14.30;99.90;;;;;;5097839;28;20515;-56
2022/06/08 04:14:30;;;;;;;10.50;4.85;;;14.30;99.90;;;;;;5092996;28;20032;-57
2022/06/08 04:16:57;;;;;;;4.97;4.55;;;14.30;99.90;;;;;;5093318;28;20030;-56
2022/06/08 04:19:24;;;;;;;5.22;4.72;;;14.40;99.90;;;;;;5094835;28;20028;-56
2022/06/08 04:21:50;;;;;;;4.68;4.28;;;14.40;99.90;;;;;;5095913;28;20500;-56
2022/06/08 04:24:17;;;;;;;6.55;5.05;;;14.40;99.90;;;;;;5097024;28;20024;-55
2022/06/08 04:26:43;;;;;;;3.72;3.42;;;14.50;99.90;;;;;;5095891;28;20055;-56
2022/06/08 04:29:09;;;;;;;9.05;4.00;;;14.60;99.90;;;;;;5096504;28;20044;-52
2022/06/08 04:31:35;;;;;;;5.40;4.30;;;14.70;99.90;;;;;;5096570;28;20024;-55
2022/06/08 04:34:04;;;;;;;7.20;3.72;;;14.70;99.90;;;;;;5093696;28;20024;-55
2022/06/08 04:36:31;;;;;;;3.60;3.30;;;14.90;99.90;;;;;;5096714;28;20028;-55
2022/06/08 04:38:57;;;;;;;4.75;3.28;;;15.10;99.90;;;;;;5096074;28;20075;-54
2022/06/08 04:41:24;;;;;;;4.68;4.28;;;15.10;99.90;;;;;;5092957;28;20066;-55
2022/06/08 04:43:49;;;;;;;4.85;3.10;;;15.20;99.90;;;;;;5093978;28;20024;-56
2022/06/08 04:46:16;;;;;;;9.63;4.40;;;15.20;99.90;;;;;;5096208;28;20157;-53
2022/06/08 04:48:46;;;;;;;4.05;3.60;;;15.20;99.90;;;;;;5095169;28;20016;-54
2022/06/08 04:51:14;;;;;;;4.55;3.28;;;15.30;99.90;;;;;;5094314;28;20024;-54
2022/06/08 04:53:42;;;;;;;10.27;4.00;;;15.30;99.90;;;;;;5096693;28;20012;-54
2022/06/08 04:56:08;;;;;;;4.38;2.92;;;15.30;99.90;;;;;;5096203;28;20471;-53
2022/06/08 04:58:35;;;;;;;6.80;3.53;;;15.30;99.90;;;;;;5096841;28;20031;-56
2022/06/08 05:01:03;;;;;;;5.85;3.97;;;15.30;99.90;;;;;;5095438;28;20032;-53
2022/06/08 05:03:30;;;;;;;3.65;3.33;;;15.30;99.90;;;;;;5094987;28;20024;-54
2022/06/08 05:06:01;;;;;;;3.50;3.20;;;15.30;99.90;;;;;;5094203;28;20069;-51
2022/06/08 05:08:27;;;;;;;3.25;3.00;;;15.40;99.90;;;;;;5091919;28;20074;-56
2022/06/08 05:10:54;;;;;;;6.38;3.10;;;15.50;99.90;;;;;;5092824;28;20475;-55
2022/06/08 05:13:22;;;;;;;3.53;3.22;;;15.60;99.90;;;;;;5096647;28;20004;-56
2022/06/08 05:15:49;;;;;;;4.72;2.55;;;15.70;99.90;;;;;;5094805;28;20073;-54
2022/06/08 05:18:18;;;;;;;2.90;2.70;;;15.70;99.90;;;;;;5093371;28;20024;-55
2022/06/08 05:20:45;;;;;;;7.10;2.65;;;15.70;99.90;;;;;;5093843;28;20032;-55
2022/06/08 05:23:16;;;;;;;4.47;2.95;;;15.80;99.90;;;;;;5096362;28;20027;-52
2022/06/08 05:25:42;;;;;;;8.38;2.97;;;15.90;99.90;;;;;;5093768;28;20471;-54
2022/06/08 05:28:08;;;;;;;2.47;2.28;;;16.00;99.90;;;;;;5093807;28;20024;-55
2022/06/08 05:30:35;;;;;;;6.75;3.33;;;16.10;99.90;;;;;;5091688;28;20035;-53
2022/06/08 05:33:03;;;;;;;3.22;2.85;;;16.10;99.90;;;;;;5095709;28;20024;-55
2022/06/08 05:35:30;;;;;;;9.05;4.45;;;16.30;99.90;;;;;;5094659;28;20012;-53
2022/06/08 05:37:55;;;;;;;3.00;2.70;;;16.40;99.90;;;;;;5094334;28;20024;-53
2022/06/08 05:40:22;;;;;;;4.07;2.90;;;16.40;99.90;;;;;;5093962;28;20036;-53
2022/06/08 05:42:48;;;;;;;2.58;2.38;;;16.40;99.90;;;;;;5093307;28;20093;-52
2022/06/08 05:45:25;;;;;;;3.33;2.67;;;16.40;99.90;;;;;;5095184;28;20024;-53
2022/06/08 05:47:51;;;;;;;4.97;2.38;;;16.30;99.90;;;;;;5094780;28;20032;-58
2022/06/08 05:50:41;;;;;;;4.63;2.72;;;16.30;99.90;;;;;;5094414;28;20024;-57
2022/06/08 05:53:07;;;;;;;2.33;2.15;;;16.10;99.90;;;;;;5095297;28;20043;-56
2022/06/08 05:55:33;;;;;;;4.80;2.13;;;16.30;99.90;;;;;;5093678;28;20371;-54
2022/06/08 05:57:59;;;;;;;2.70;2.22;;;16.30;99.90;;;;;;5092423;28;20027;-53
2022/06/08 06:00:28;;;;;;;4.32;2.22;;;16.40;99.90;;;;;;5093382;28;20364;-54
2022/06/08 06:02:55;;;;;;;6.05;2.63;;;16.50;99.90;;;;;;5092964;28;20032;-55
2022/06/08 06:05:26;;;;;;;3.47;2.17;;;16.50;99.90;;;;;;5094398;28;20076;-53
2022/06/08 06:07:51;;;;;;;5.95;2.75;;;16.70;99.90;;;;;;5095292;28;20527;-52
2022/06/08 06:10:18;;;;;;;5.10;2.58;;;16.70;99.90;;;;;;5094462;28;20073;-58
2022/06/08 06:12:44;;;;;;;3.63;2.30;;;16.80;99.90;;;;;;5095026;28;20028;-57
2022/06/08 06:15:11;;;;;;;4.45;2.53;;;16.90;99.90;;;;;;5092469;28;20032;-55
2022/06/08 06:17:37;;;;;;;2.53;2.17;;;17.00;99.90;;;;;;5093930;28;20056;-55
2022/06/08 06:20:04;;;;;;;2.47;2.28;;;17.00;99.90;;;;;;5094340;28;20090;-54
2022/06/08 06:22:33;;;;;;;3.10;2.17;;;17.00;99.90;;;;;;5095319;28;20072;-53
2022/06/08 06:24:59;;;;;;;4.65;1.92;;;17.40;99.90;;;;;;5093478;28;20016;-55
2022/06/08 06:27:26;;;;;;;6.75;1.88;;;17.30;99.90;;;;;;5092681;28;20217;-55
2022/06/08 06:29:52;;;;;;;4.65;2.47;;;17.30;99.90;;;;;;5092238;28;20016;-55
2022/06/08 06:32:27;;;;;;;2.88;2.22;;;17.30;99.90;;;;;;5094270;28;20026;-56
2022/06/08 06:34:54;;;;;;;2.00;1.88;;;17.60;99.90;;;;;;5091948;28;20034;-58
2022/06/08 06:37:23;;;;;;;2.13;1.92;;;17.60;99.90;;;;;;5097096;28;20024;-57
2022/06/08 06:39:48;;;;;;;6.03;2.00;;;17.80;99.90;;;;;;5093594;28;20514;-56
2022/06/08 06:42:25;;;;;;;2.55;1.88;;;17.40;99.90;;;;;;5094706;28;20036;-56
2022/06/08 06:44:52;;;;;;;2.28;1.63;;;17.20;99.90;;;;;;5092324;28;20119;-56
2022/06/08 06:47:18;;;;;;;3.13;1.65;;;17.40;99.90;;;;;;5095616;28;20028;-54
2022/06/08 06:49:44;;;;;;;1.92;1.77;;;17.40;99.90;;;;;;5093183;28;20020;-56
2022/06/08 06:52:12;;;;;;;2.20;2.00;;;17.50;99.90;;;;;;5094051;28;20031;-56
2022/06/08 06:54:39;;;;;;;1.48;1.38;;;17.40;99.90;;;;;;5091642;28;20028;-56
2022/06/08 06:57:05;;;;;;;5.72;1.73;;;17.50;99.90;;;;;;5092734;28;20086;-55
2022/06/08 06:59:31;;;;;;;1.88;1.38;;;17.80;99.90;;;;;;5093531;28;20024;-55
2022/06/08 07:01:57;;;;;;;2.38;1.65;;;18.10;99.90;;;;;;5093916;28;20050;-56
2022/06/08 07:04:23;;;;;;;2.22;1.50;;;18.10;99.90;;;;;;5093169;28;20027;-56
2022/06/08 07:06:49;;;;;;;1.80;1.70;;;18.00;99.90;;;;;;5091505;28;20027;-56
2022/06/08 07:09:15;;;;;;;4.63;1.63;;;17.90;99.90;;;;;;5091092;28;20021;-55
2022/06/08 07:11:40;;;;;;;1.33;1.20;;;17.80;99.90;;;;;;5072745;28;20013;-56
2022/06/08 07:14:10;;;;;;;5.95;2.05;;;18.10;99.90;;;;;;5070995;28;20376;-53
2022/06/08 07:16:36;;;;;;;1.52;1.42;;;18.10;99.90;;;;;;5071117;28;20048;-55
2022/06/08 07:19:02;;;;;;;4.95;1.27;;;18.10;99.90;;;;;;5070365;28;20126;-56
2022/06/08 07:21:28;;;;;;;1.90;1.33;;;18.60;99.90;;;;;;5075079;28;20031;-54
2022/06/08 07:23:55;;;;;;;7.35;2.13;;;18.80;99.90;;;;;;5073912;28;20028;-56
2022/06/08 07:26:24;;;;;;;1.40;1.05;;;19.10;99.90;;;;;;5074577;28;20063;-55
2022/06/08 07:28:53;;;;;;;5.18;3.53;;;19.20;99.90;;;;;;5075646;28;20016;-54
2022/06/08 07:31:19;;;;;;;2.70;1.92;;;19.10;99.90;;;;;;5074119;28;20107;-52
2022/06/08 07:33:45;;;;;;;3.78;1.20;;;19.30;99.90;;;;;;5074498;28;20048;-55
2022/06/08 07:36:11;;;;;;;1.10;1.10;;;19.50;99.90;;;;;;5074881;28;20443;-53
2022/06/08 07:38:37;;;;;;;2.97;1.08;;;19.50;99.90;;;;;;5073781;28;20025;-56
2022/06/08 07:41:03;;;;;;;4.28;1.30;;;19.40;99.90;;;;;;5074245;28;20376;-56
2022/06/08 07:43:29;;;;;;;0.95;0.95;;;19.00;99.90;;;;;;5073313;28;20349;-54
2022/06/08 07:45:55;;;;;;;1.42;1.00;;;18.60;99.90;;;;;;5074208;28;20022;-54
2022/06/08 07:51:04;;;;;;;1.85;1.17;;;18.60;99.90;;;;;;5076516;28;20486;-56
2022/06/08 07:53:30;;;;;;;1.20;1.00;;;18.60;99.90;;;;;;5073972;28;20024;-56
2022/06/08 07:55:56;;;;;;;3.58;1.10;;;18.60;99.90;;;;;;5074527;28;20028;-53
2022/06/08 07:58:22;;;;;;;3.70;1.20;;;19.00;99.90;;;;;;5081925;28;20078;-52
2022/06/08 08:00:47;;;;;;;1.80;1.20;;;19.40;99.90;;;;;;5095695;28;20724;-56
2022/06/08 08:03:17;;;;;;;0.80;0.80;;;19.30;99.90;;;;;;5097822;28;20491;-54
2022/06/08 08:05:46;;;;;;;8.52;1.42;;;19.90;99.90;;;;;;5094210;28;20028;-56
2022/06/08 08:08:15;;;;;;;1.13;0.93;;;20.30;99.90;;;;;;5095678;28;20083;-53
2022/06/08 08:10:41;;;;;;;1.85;1.00;;;20.20;99.90;;;;;;5094478;28;20027;-57
2022/06/08 08:13:10;;;;;;;2.33;1.10;;;19.90;99.90;;;;;;5096856;28;20137;-57
2022/06/08 08:15:37;;;;;;;2.13;1.23;;;20.00;99.90;;;;;;5095437;28;20028;-57
2022/06/08 08:18:03;;;;;;;2.95;2.75;;;20.00;99.90;;;;;;5095944;28;20119;-55
2022/06/08 08:20:30;;;;;;;13.88;12.88;;;20.10;99.90;;;;;;5095656;28;20032;-57
2022/06/08 08:22:56;;;;;;;1.33;1.23;;;19.80;99.90;;;;;;5095455;28;20402;-55
2022/06/08 08:25:23;;;;;;;1.70;1.20;;;20.20;99.90;;;;;;5095027;28;20515;-54
2022/06/08 08:27:50;;;;;;;1.77;1.10;;;20.30;99.90;;;;;;5094323;28;20042;-55
2022/06/08 08:30:19;;;;;;;0.93;0.93;;;20.60;99.90;;;;;;5094547;28;20032;-57
2022/06/08 08:32:44;;;;;;;1.65;1.55;;;20.30;99.90;;;;;;5093717;28;20367;-56
2022/06/08 08:35:12;;;;;;;6.28;1.10;;;19.90;99.90;;;;;;5097004;28;20024;-56
2022/06/08 08:37:38;;;;;;;0.98;0.98;;;20.00;99.90;;;;;;5095910;28;20020;-57
2022/06/08 08:40:13;;;;;;;3.15;0.93;;;19.90;99.90;;;;;;5094279;28;20119;-53
2022/06/08 08:42:39;;;;;;;1.27;1.17;;;19.60;99.90;;;;;;5093794;28;20039;-55
2022/06/08 08:45:11;;;;;;;2.35;1.13;;;20.00;99.90;;;;;;5093970;28;20020;-56
2022/06/08 08:48:09;;;;;;;2.58;0.88;;;20.40;99.90;;;;;;5093368;28;20020;-53
2022/06/08 08:50:44;;;;;;;2.05;0.90;;;20.70;99.90;;;;;;5093071;28;20019;-52
2022/06/08 08:53:16;;;;;;;8.48;1.30;;;20.40;99.90;;;;;;5095416;28;20605;-56
2022/06/08 08:56:00;;;;;;;3.83;1.08;;;20.60;99.90;;;;;;5095126;28;20012;-56
2022/06/08 08:58:28;;;;;;;;;;;21.10;99.90;;;;;;5095398;28;20028;-56
2022/06/08 09:01:14;;;;;;;1.00;1.00;;;21.00;99.90;;;;;;5097010;28;20361;-57
2022/06/08 09:04:13;;;;;;;1.52;1.27;;;20.60;99.90;;;;;;5093977;28;20379;-55
2022/06/08 09:06:39;;;;;;;1.70;1.05;;;20.50;99.90;;;;;;5093156;28;20035;-57
2022/06/08 09:09:16;;;;;;;1.13;1.00;;;20.40;99.90;;;;;;5093870;28;20020;-55
2022/06/08 09:11:44;;;;;;;9.30;1.05;;;20.70;99.90;;;;;;5094131;28;20031;-57
2022/06/08 09:14:17;;;;;;;1.10;1.00;;;20.40;99.90;;;;;;5097032;28;20024;-58
2022/06/08 09:16:48;;;;;;;5.00;2.10;;;20.50;99.90;;;;;;5097329;28;20032;-54
2022/06/08 09:19:32;;;;;;;1.13;0.82;;;20.60;99.90;;;;;;5096801;28;20032;-56
2022/06/08 09:22:18;;;;;;;4.43;1.27;;;20.80;99.90;;;;;;5094926;28;20081;-57
2022/06/08 09:24:51;;;;;;;2.25;1.75;;;20.70;99.70;;;;;;5097363;28;20020;-55
2022/06/08 09:27:17;;;;;;;;;;;20.80;99.50;;;;;;5096715;28;20099;-56
2022/06/08 09:30:00;;;;;;;2.17;1.98;;;21.30;98.70;;;;;;5095443;28;19951;-57
2022/06/08 09:32:45;;;;;;;;;;;21.20;98.70;;;;;;5098293;28;20439;-55
2022/06/08 09:35:28;;;;;;;2.53;0.98;;;21.30;99.10;;;;;;5094194;28;19904;-57
2022/06/08 09:38:13;;;;;;;6.05;2.50;;;21.40;98.40;;;;;;5092531;28;20044;-54
2022/06/08 09:40:48;;;;;;;2.22;1.98;;;21.40;99.90;;;;;;5093698;28;20479;-56
2022/06/08 09:43:55;;;;;;;3.20;0.93;;;21.40;99.90;;;;;;5093402;28;20031;-54
2022/06/08 09:52:27;;;;;;;0.93;0.77;;;21.50;99.90;;;;;;5094630;28;20065;-55
2022/06/08 09:55:10;;;;;;;3.42;1.02;;;21.70;98.10;;;;;;5094042;28;20027;-55
2022/06/08 09:57:47;;;;;;;1.70;1.20;;;21.50;98.00;;;;;;5093765;28;20363;-58
2022/06/08 10:00:27;;;;;;;1.90;1.20;;;22.30;98.50;;;;;;5095120;28;20080;-56
2022/06/08 10:03:18;;;;;;;2.03;1.05;;;22.80;98.20;;;;;;5094741;28;20539;-57
2022/06/08 10:05:49;;;;;;;0.70;0.70;;;23.20;99.90;;;;;;5097915;28;20028;-56
2022/06/08 10:08:25;;;;;;;1.65;1.55;;;23.00;97.10;;;;;;5095943;28;20031;-54
2022/06/08 10:11:00;;;;;;;4.13;1.52;;;23.10;96.60;;;;;;5105912;28;20032;-55
2022/06/08 10:13:43;;;;;;;1.77;1.10;;;23.00;96.70;;;;;;5105147;28;20070;-55
2022/06/08 10:16:23;;;;;;;2.83;1.30;;;23.40;97.90;;;;;;5105472;28;20028;-55
2022/06/08 10:19:05;;;;;;;1.73;1.50;;;23.60;95.50;;;;;;5101563;28;20788;-56
2022/06/08 10:21:43;;;;;;;1.80;1.33;;;23.10;94.60;;;;;;5100622;28;20114;-55
2022/06/08 10:24:15;;;;;;;68.38;52.42;;;22.60;93.90;;;;;;5101775;28;20022;-55
2022/06/08 10:26:48;;;;;;;2.60;2.38;;;22.10;94.30;;;;;;5085462;28;20503;-56
2022/06/08 10:29:16;;;;;;;4.68;0.90;;;22.30;96.00;;;;;;5081816;28;20034;-56
2022/06/08 10:32:17;;;;;;;3.95;0.88;;;22.90;98.80;;;;;;5100171;28;20475;-57
2022/06/08 10:34:43;;;;;;;1.33;1.10;;;23.50;96.50;;;;;;5095201;28;20124;-55
2022/06/08 10:37:11;;;;;;;1.70;0.95;;;23.90;95.40;;;;;;5102075;28;20065;-54
2022/06/08 10:39:39;;;;;;;5.38;1.27;;;23.70;95.00;;;;;;5082842;28;20105;-56
2022/06/08 10:45:01;;;;;;;0.82;0.80;;;24.30;95.20;;;;;;5092726;28;20082;-55
2022/06/08 10:47:39;;;;;;;2.35;1.52;;;24.50;90.30;;;;;;5095012;28;20027;-56
2022/06/08 10:50:05;;;;;;;0.70;0.70;;;24.10;91.90;;;;;;5095364;28;20031;-54
2022/06/08 10:52:44;;;;;;;1.73;0.98;;;24.40;91.40;;;;;;5092495;28;20019;-58
2022/06/08 10:55:36;;;;;;;0.40;0.40;;;24.70;90.30;;;;;;5094830;28;20421;-57
2022/06/08 10:58:11;;;;;;;0.47;0.47;;;24.70;87.40;;;;;;5094504;28;20020;-54
2022/06/08 11:01:05;;;;;;;0.50;0.50;;;25.50;87.10;;;;;;5095378;28;20024;-57
2022/06/08 11:03:46;;;;;;;0.75;0.50;;;25.80;84.30;;;;;;5092690;28;20036;-55
2022/06/08 11:06:45;;;;;;;0.88;0.60;;;26.10;80.30;;;;;;5094518;28;20372;-56
2022/06/08 11:09:40;;;;;;;0.45;0.45;;;25.80;79.10;;;;;;5096103;28;20027;-56
2022/06/08 11:12:12;;;;;;;2.15;0.88;;;25.80;86.90;;;;;;5091803;28;20051;-57
2022/06/08 11:15:15;;;;;;;3.13;0.50;;;25.50;81.00;;;;;;5092421;28;20026;-58
2022/06/08 11:18:10;;;;;;;1.47;0.70;;;25.20;78.70;;;;;;5093023;28;20020;-55
2022/06/08 11:20:47;;;;;;;0.40;0.40;;;24.90;77.60;;;;;;5095456;28;20119;-57
2022/06/08 11:23:35;;;;;;;0.90;0.60;;;24.50;79.70;;;;;;5096019;28;20024;-56
2022/06/08 11:26:04;;;;;;;1.83;0.70;;;24.30;81.40;;;;;;5094845;28;20507;-57
2022/06/08 11:28:43;;;;;;;1.65;0.75;;;24.30;86.10;;;;;;5094757;28;20012;-57
2022/06/08 11:31:29;;;;;;;5.70;0.75;;;24.60;85.60;;;;;;5091917;28;20047;-57
2022/06/08 11:34:01;;;;;;;0.75;0.75;;;24.70;89.20;;;;;;5093683;28;20348;-57
2022/06/08 11:36:55;;;;;;;3.83;0.60;;;24.70;89.30;;;;;;5093300;28;20577;-57
2022/06/08 11:39:57;;;;;;;0.95;0.70;;;24.50;91.40;;;;;;5094003;28;20066;-58
2022/06/08 11:42:36;;;;;;;1.48;0.65;;;24.70;88.10;;;;;;5092602;28;20032;-56
2022/06/08 11:45:20;;;;;;;1.67;0.60;;;24.80;89.20;;;;;;5097115;28;20044;-57
2022/06/08 11:47:53;;;;;;;1.17;0.60;;;25.40;90.30;;;;;;5090948;28;20475;-56
2022/06/08 11:50:43;;;;;;;3.83;0.85;;;25.60;86.10;;;;;;5090288;28;20024;-56
2022/06/08 11:53:33;;;;;;;0.95;0.77;;;25.40;84.50;;;;;;5089632;28;20367;-58
2022/06/08 11:56:29;;;;;;;2.08;0.60;;;25.10;86.00;;;;;;5082462;28;20073;-55
2022/06/08 11:58:59;;;;;;;6.05;1.10;;;25.30;84.00;;;;;;5093189;28;20020;-58
2022/06/08 12:01:43;;;;;;;0.70;0.50;;;25.40;85.30;;;;;;5078495;28;20032;-57
2022/06/08 12:04:14;;;;;;;0.70;0.65;;;25.80;88.60;;;;;;5094192;28;20029;-57
2022/06/08 12:06:43;;;;;;;2.22;0.80;;;26.20;80.20;;;;;;5091326;28;20084;-57
2022/06/08 12:09:34;;;;;;;0.70;0.55;;;26.20;80.70;;;;;;5096592;28;20024;-57
2022/06/08 12:12:05;;;;;;;1.35;0.63;;;26.30;79.70;;;;;;5099017;28;20020;-57
2022/06/08 12:14:34;;;;;;;0.85;0.52;;;26.40;77.80;;;;;;5097088;28;20024;-55
2022/06/08 12:17:11;;;;;;;4.35;0.90;;;26.50;78.30;;;;;;5098159;28;20024;-55
2022/06/08 12:19:51;;;;;;;2.33;0.90;;;27.50;80.80;;;;;;5095703;28;20359;-57
2022/06/08 12:22:27;;;;;;;4.60;0.70;;;28.20;78.50;;;;;;5098660;28;20027;-57
2022/06/08 12:25:19;;;;;;;1.70;0.98;;;27.90;73.40;;;;;;5095948;28;20466;-57
2022/06/08 12:28:03;;;;;;;1.13;0.60;;;27.50;72.60;;;;;;5095931;28;20020;-57
2022/06/08 12:30:35;;;;;;;1.05;0.77;;;28.40;72.20;;;;;;5096505;28;20066;-56
2022/06/08 12:33:02;;;;;;;3.33;0.50;;;29.20;72.30;;;;;;5094443;28;20020;-56
2022/06/08 12:35:38;;;;;;;2.25;0.60;;;30.10;67.70;;;;;;5097557;28;20518;-56
2022/06/08 12:38:12;;;;;;;4.28;0.70;;;30.40;63.70;;;;;;5098705;28;20028;-55
2022/06/08 12:40:38;;;;;;;0.80;0.50;;;31.00;63.40;;;;;;5095524;28;20036;-54
2022/06/08 12:43:07;;;;;;;1.83;0.38;;;30.40;62.90;;;;;;5096044;28;20499;-56
2022/06/08 12:45:36;;;;;;;3.72;0.40;;;30.40;58.90;;;;;;5094513;28;20309;-56
2022/06/08 12:48:26;;;;;;;3.92;0.60;;;30.80;57.40;;;;;;5095328;28;20020;-57
2022/06/08 12:50:53;;;;;;;0.65;0.45;;;31.80;60.70;;;;;;5094186;28;20020;-57
2022/06/08 12:53:20;;;;;;;2.75;0.60;;;32.20;58.80;;;;;;5096975;28;20016;-57
2022/06/08 12:55:45;;;;;;;1.02;0.55;;;32.10;57.90;;;;;;5094665;28;20023;-57
2022/06/08 12:58:11;;;;;;;3.50;0.63;;;31.20;56.40;;;;;;5093416;28;20491;-57
2022/06/08 13:00:44;;;;;;;1.42;0.30;;;30.80;62.80;;;;;;5093782;28;20103;-57
2022/06/08 13:03:25;;;;;;;1.48;0.65;;;32.30;61.90;;;;;;5094201;28;20032;-55
2022/06/08 13:05:52;;;;;;;2.67;0.65;;;32.60;57.80;;;;;;5093844;28;20111;-57
2022/06/08 13:08:22;;;;;;;2.40;0.43;;;31.80;56.00;;;;;;5093448;28;20031;-57
2022/06/08 13:10:50;;;;;;;2.58;0.40;;;31.90;58.80;;;;;;5093505;28;20020;-57
2022/06/08 13:13:23;;;;;;;0.90;0.50;;;32.10;57.50;;;;;;5093574;28;20660;-57
2022/06/08 13:15:49;;;;;;;1.17;0.57;;;32.60;57.90;;;;;;5094169;28;20024;-57
2022/06/08 13:18:24;;;;;;;2.13;0.50;;;31.80;56.80;;;;;;5092903;28;20032;-57
2022/06/08 13:20:53;;;;;;;5.43;0.50;;;30.70;57.00;;;;;;5093451;28;20012;-57
2022/06/08 13:23:18;;;;;;;2.47;0.60;;;29.70;57.90;;;;;;5093486;28;20027;-56
2022/06/08 13:25:46;;;;;;;3.70;0.50;;;29.80;57.90;;;;;;5093467;28;20028;-57